Time;durP1;ratioP1;P1;durP2;ratioP2;P2;SDS_P1;SDS_P2;PMS_P1;PMS_P2;Temp;Humidity;BMP_temperature;BMP_pressure;BME280_temperature;BME280_humidity;BME280_pressure;Samples;Min_cycle;Max_cycle;Signal;HPM_P1;HPM_P2
2022/07/10 00:01:27;;;;;;;3.63;0.30;;;17.10;73.40;;;;;;5066116;28;20025;-62
2022/07/10 00:03:54;;;;;;;1.85;0.45;;;17.10;73.60;;;;;;5068581;28;20028;-62
2022/07/10 00:06:19;;;;;;;1.40;0.30;;;17.10;73.70;;;;;;5065926;28;20032;-62
2022/07/10 00:08:46;;;;;;;3.72;0.40;;;17.10;73.90;;;;;;5065137;28;20028;-62
2022/07/10 00:11:11;;;;;;;1.92;0.50;;;17.10;74.00;;;;;;5067500;28;20017;-62
2022/07/10 00:13:37;;;;;;;3.10;0.50;;;17.10;74.10;;;;;;5066640;28;20043;-62
2022/07/10 00:16:03;;;;;;;1.60;0.35;;;17.10;74.20;;;;;;5065959;28;20111;-62
2022/07/10 00:18:29;;;;;;;1.85;0.57;;;17.00;74.20;;;;;;5064268;28;20059;-62
2022/07/10 00:20:54;;;;;;;2.20;0.40;;;17.00;74.30;;;;;;5063314;28;20017;-62
2022/07/10 00:23:20;;;;;;;2.03;0.40;;;17.00;74.50;;;;;;5067724;28;20028;-62
2022/07/10 00:25:45;;;;;;;2.20;0.40;;;17.00;74.60;;;;;;5066536;28;20483;-62
2022/07/10 00:28:11;;;;;;;2.17;0.55;;;17.00;74.80;;;;;;5066132;28;20021;-62
2022/07/10 00:30:37;;;;;;;2.28;0.50;;;16.90;74.80;;;;;;5063674;28;20040;-62
2022/07/10 00:33:03;;;;;;;4.28;1.25;;;16.90;75.00;;;;;;5065555;28;20024;-62
2022/07/10 00:35:29;;;;;;;1.95;0.50;;;16.90;75.10;;;;;;5062871;28;20436;-62
2022/07/10 00:37:54;;;;;;;2.40;0.60;;;16.90;75.00;;;;;;5067728;28;20060;-62
2022/07/10 00:40:20;;;;;;;2.40;0.60;;;16.80;75.60;;;;;;5069805;28;20104;-62
2022/07/10 00:42:46;;;;;;;2.13;0.40;;;16.80;75.10;;;;;;5070131;28;20028;-62
2022/07/10 00:45:11;;;;;;;3.53;1.05;;;16.70;75.00;;;;;;5066906;28;20052;-62
2022/07/10 00:47:37;;;;;;;3.10;0.65;;;16.70;75.10;;;;;;5071530;28;20016;-62
2022/07/10 00:50:04;;;;;;;2.17;0.50;;;16.70;75.10;;;;;;5070976;28;20480;-62
2022/07/10 00:52:30;;;;;;;2.00;0.60;;;16.70;75.20;;;;;;5067227;28;20024;-62
2022/07/10 00:54:56;;;;;;;2.65;0.60;;;16.70;75.20;;;;;;5066773;28;20037;-62
2022/07/10 00:57:22;;;;;;;2.03;0.70;;;16.60;75.40;;;;;;5071033;28;20048;-62
2022/07/10 00:59:49;;;;;;;3.70;0.65;;;16.50;75.60;;;;;;5068914;28;20024;-62
2022/07/10 01:02:16;;;;;;;2.42;0.50;;;16.50;75.70;;;;;;5071767;28;20066;-62
2022/07/10 01:04:42;;;;;;;1.00;0.43;;;16.40;75.80;;;;;;5069545;28;20451;-62
2022/07/10 01:07:07;;;;;;;3.90;0.63;;;16.40;76.00;;;;;;5068769;28;20079;-62
2022/07/10 01:09:34;;;;;;;1.67;0.40;;;16.30;76.00;;;;;;5070928;28;20437;-63
2022/07/10 01:14:52;;;;;;;2.10;0.60;;;16.30;76.10;;;;;;5062363;28;20029;-63
2022/07/10 01:17:19;;;;;;;2.72;0.52;;;16.30;76.30;;;;;;5070905;28;20027;-62
2022/07/10 01:19:45;;;;;;;2.00;0.65;;;16.20;76.50;;;;;;5070359;28;20048;-62
2022/07/10 01:22:10;;;;;;;2.22;0.60;;;16.20;76.50;;;;;;5070006;28;20488;-62
2022/07/10 01:24:36;;;;;;;1.65;0.40;;;16.20;76.70;;;;;;5069619;28;20317;-62
2022/07/10 01:27:01;;;;;;;2.08;0.60;;;16.10;76.80;;;;;;5069635;28;20491;-62
2022/07/10 01:29:29;;;;;;;2.58;0.40;;;16.10;76.90;;;;;;5069233;28;20036;-62
2022/07/10 01:31:54;;;;;;;1.38;0.50;;;16.10;77.00;;;;;;5070962;28;20540;-62
2022/07/10 01:34:20;;;;;;;1.67;0.43;;;16.10;77.10;;;;;;5069433;28;20221;-62
2022/07/10 01:36:46;;;;;;;1.75;0.47;;;16.00;77.20;;;;;;5070815;28;20029;-63
2022/07/10 01:39:12;;;;;;;2.40;0.40;;;16.10;77.30;;;;;;5068039;28;20105;-62
2022/07/10 01:41:37;;;;;;;1.15;0.35;;;16.00;77.50;;;;;;5069603;28;20035;-62
2022/07/10 01:44:03;;;;;;;1.85;0.40;;;16.00;77.60;;;;;;5068273;28;20092;-62
2022/07/10 01:46:29;;;;;;;2.50;0.43;;;16.00;77.90;;;;;;5068371;28;20029;-62
2022/07/10 01:48:55;;;;;;;2.00;0.43;;;16.00;78.10;;;;;;5070406;28;20024;-62
2022/07/10 01:51:21;;;;;;;1.95;0.40;;;15.90;78.20;;;;;;5068598;28;20036;-62
2022/07/10 01:53:46;;;;;;;2.92;0.50;;;15.90;78.40;;;;;;5070054;28;20032;-62
2022/07/10 01:56:13;;;;;;;1.35;0.35;;;15.90;78.60;;;;;;5067778;28;20052;-62
2022/07/10 01:58:40;;;;;;;0.93;0.43;;;15.90;78.70;;;;;;5069304;28;20020;-62
2022/07/10 02:01:06;;;;;;;1.58;0.75;;;15.90;78.80;;;;;;5066615;28;20020;-62
2022/07/10 02:06:16;;;;;;;1.38;0.40;;;15.80;79.00;;;;;;5070559;28;20028;-62
2022/07/10 02:08:42;;;;;;;2.65;0.50;;;15.80;79.20;;;;;;5069708;28;20046;-62
2022/07/10 02:11:08;;;;;;;1.95;0.50;;;15.80;79.30;;;;;;5068788;28;20111;-62
2022/07/10 02:13:33;;;;;;;1.90;0.40;;;15.80;79.40;;;;;;5066580;28;20020;-62
2022/07/10 02:15:59;;;;;;;1.88;0.40;;;15.80;79.50;;;;;;5070083;28;20047;-62
2022/07/10 02:18:25;;;;;;;1.02;0.40;;;15.80;79.50;;;;;;5069732;28;20060;-62
2022/07/10 02:20:51;;;;;;;2.50;0.57;;;15.80;79.70;;;;;;5069120;28;20020;-62
2022/07/10 02:23:17;;;;;;;2.42;0.60;;;15.80;79.80;;;;;;5066280;28;20146;-62
2022/07/10 02:25:43;;;;;;;2.92;0.50;;;15.80;80.00;;;;;;5067212;28;20480;-62
2022/07/10 02:28:08;;;;;;;2.20;0.52;;;15.70;80.10;;;;;;5067260;28;20027;-62
2022/07/10 02:30:34;;;;;;;3.00;0.50;;;15.70;80.20;;;;;;5072322;28;20095;-62
2022/07/10 02:33:00;;;;;;;2.97;0.57;;;15.70;80.40;;;;;;5071017;28;20094;-62
2022/07/10 02:35:25;;;;;;;1.45;0.60;;;15.70;80.60;;;;;;5069961;28;20098;-62
2022/07/10 02:37:51;;;;;;;3.53;0.82;;;15.70;80.70;;;;;;5066891;28;20016;-62
2022/07/10 02:40:16;;;;;;;2.05;0.55;;;15.60;80.80;;;;;;5068905;28;20052;-62
2022/07/10 02:42:42;;;;;;;2.17;0.63;;;15.60;80.90;;;;;;5066796;28;20020;-62
2022/07/10 02:45:08;;;;;;;1.98;0.60;;;15.60;81.00;;;;;;5066585;28;20035;-62
2022/07/10 02:47:34;;;;;;;1.98;0.73;;;15.60;81.10;;;;;;5068154;28;20109;-62
2022/07/10 02:49:59;;;;;;;2.08;0.65;;;15.60;81.30;;;;;;5069560;28;20016;-62
2022/07/10 02:52:25;;;;;;;2.47;0.68;;;15.60;81.40;;;;;;5067900;28;20107;-62
2022/07/10 02:54:51;;;;;;;1.95;0.60;;;15.60;81.50;;;;;;5067811;28;20459;-62
2022/07/10 02:57:17;;;;;;;2.75;0.70;;;15.60;81.70;;;;;;5064443;28;20500;-62
2022/07/10 02:59:42;;;;;;;3.55;1.42;;;15.50;81.70;;;;;;5068404;28;20025;-62
2022/07/10 03:02:08;;;;;;;2.13;0.52;;;15.50;81.80;;;;;;5065111;28;20024;-62
2022/07/10 03:04:33;;;;;;;2.22;0.70;;;15.50;82.00;;;;;;5066585;28;20070;-62
2022/07/10 03:06:59;;;;;;;1.58;0.50;;;15.40;82.20;;;;;;5066912;28;20427;-61
2022/07/10 03:09:25;;;;;;;3.38;0.60;;;15.40;82.30;;;;;;5068600;28;20979;-62
2022/07/10 03:11:51;;;;;;;1.50;0.60;;;15.40;82.50;;;;;;5069079;28;20043;-62
2022/07/10 03:14:17;;;;;;;4.40;0.70;;;15.40;82.70;;;;;;5066080;28;20425;-62
2022/07/10 03:16:42;;;;;;;1.65;0.45;;;15.40;83.50;;;;;;5069088;28;20020;-62
2022/07/10 03:19:08;;;;;;;2.45;0.70;;;15.40;82.90;;;;;;5068176;28;20027;-62
2022/07/10 03:21:34;;;;;;;2.25;0.75;;;15.40;83.00;;;;;;5068131;28;20422;-61
2022/07/10 03:23:59;;;;;;;4.13;0.93;;;15.40;83.10;;;;;;5066096;28;20024;-62
2022/07/10 03:26:26;;;;;;;3.63;0.60;;;15.40;83.30;;;;;;5065603;28;20028;-61
2022/07/10 03:28:52;;;;;;;2.70;0.70;;;15.40;83.50;;;;;;5069065;28;20051;-61
2022/07/10 03:31:17;;;;;;;2.40;0.80;;;15.40;83.60;;;;;;5067377;28;20060;-62
2022/07/10 03:33:43;;;;;;;2.35;0.68;;;15.40;83.70;;;;;;5066646;28;20024;-62
2022/07/10 03:36:08;;;;;;;3.50;0.90;;;15.40;83.80;;;;;;5066481;28;20075;-61
2022/07/10 03:38:34;;;;;;;2.35;0.73;;;15.40;84.00;;;;;;5066204;28;20021;-62
2022/07/10 03:40:59;;;;;;;3.10;0.60;;;15.40;84.10;;;;;;5066026;28;20021;-62
2022/07/10 03:43:25;;;;;;;3.53;0.98;;;15.40;84.20;;;;;;5064726;28;20438;-62
2022/07/10 03:45:51;;;;;;;4.78;0.75;;;15.40;84.30;;;;;;5068526;28;20020;-62
2022/07/10 03:48:17;;;;;;;2.42;0.60;;;15.40;84.40;;;;;;5067104;28;20031;-62
2022/07/10 03:50:43;;;;;;;1.63;0.70;;;15.40;84.60;;;;;;5067127;28;20503;-62
2022/07/10 03:53:08;;;;;;;4.68;0.93;;;15.40;84.80;;;;;;5063770;28;20024;-62
2022/07/10 03:55:34;;;;;;;2.90;0.82;;;15.40;84.80;;;;;;5068206;28;20495;-62
2022/07/10 03:58:02;;;;;;;2.10;0.85;;;15.40;84.90;;;;;;5066397;28;20025;-62
2022/07/10 04:00:31;;;;;;;4.22;0.80;;;15.40;85.00;;;;;;5066609;28;20021;-62
2022/07/10 04:02:58;;;;;;;3.47;0.60;;;15.40;85.30;;;;;;5048343;28;20079;-62
2022/07/10 04:05:25;;;;;;;4.70;1.23;;;15.40;85.40;;;;;;5066808;28;20032;-62
2022/07/10 04:07:51;;;;;;;4.47;1.20;;;15.40;85.60;;;;;;5067623;28;20024;-62
2022/07/10 04:10:17;;;;;;;3.05;1.10;;;15.40;85.80;;;;;;5067218;28;20030;-62
2022/07/10 04:12:43;;;;;;;2.97;1.35;;;15.40;85.90;;;;;;5067415;28;20057;-62
2022/07/10 04:15:09;;;;;;;3.42;1.00;;;15.40;86.10;;;;;;5071004;28;20032;-62
2022/07/10 04:17:35;;;;;;;3.72;0.80;;;15.40;86.20;;;;;;5070863;28;20028;-62
2022/07/10 04:20:00;;;;;;;6.32;0.95;;;15.40;86.30;;;;;;5072457;28;20028;-62
2022/07/10 04:22:27;;;;;;;1.98;0.70;;;15.40;86.50;;;;;;5068803;28;20062;-62
2022/07/10 04:24:53;;;;;;;1.73;1.00;;;15.40;86.60;;;;;;5071271;28;20020;-62
2022/07/10 04:27:19;;;;;;;2.80;0.90;;;15.50;86.90;;;;;;5072138;28;20108;-62
2022/07/10 04:29:44;;;;;;;2.08;1.05;;;15.50;87.00;;;;;;5069553;28;20138;-62
2022/07/10 04:32:10;;;;;;;2.72;0.85;;;15.50;87.00;;;;;;5085260;28;20032;-62
2022/07/10 04:34:36;;;;;;;2.33;0.80;;;15.50;87.10;;;;;;5069298;28;20095;-62
2022/07/10 04:37:01;;;;;;;4.05;0.82;;;15.50;87.30;;;;;;5070058;28;20479;-62
2022/07/10 04:39:29;;;;;;;5.78;1.08;;;15.60;87.40;;;;;;5070413;28;20503;-62
2022/07/10 04:41:55;;;;;;;3.25;1.15;;;15.60;87.60;;;;;;5068769;28;20046;-62
2022/07/10 04:47:22;;;;;;;2.70;0.70;;;15.60;87.90;;;;;;5070552;28;20390;-62
2022/07/10 04:49:48;;;;;;;3.80;0.80;;;15.60;88.10;;;;;;5069237;28;20025;-62
2022/07/10 04:52:13;;;;;;;3.70;0.70;;;15.60;88.20;;;;;;5069924;28;20032;-62
2022/07/10 04:54:39;;;;;;;2.80;0.82;;;15.60;88.20;;;;;;5071466;28;20146;-62
2022/07/10 04:57:04;;;;;;;4.22;0.60;;;15.60;88.20;;;;;;5070841;28;20131;-61
2022/07/10 04:59:30;;;;;;;4.15;0.95;;;15.60;88.30;;;;;;5068626;28;20023;-62
2022/07/10 05:01:56;;;;;;;3.55;0.77;;;15.70;88.50;;;;;;5070265;28;20518;-62
2022/07/10 05:04:21;;;;;;;4.18;0.60;;;15.70;88.60;;;;;;5069083;28;20493;-62
2022/07/10 05:06:47;;;;;;;2.67;0.50;;;15.70;88.60;;;;;;5070579;28;20115;-62
2022/07/10 05:09:12;;;;;;;1.65;0.70;;;15.80;88.60;;;;;;5068427;28;20016;-62
2022/07/10 05:11:38;;;;;;;1.45;0.50;;;15.80;88.60;;;;;;5070498;28;20029;-61
2022/07/10 05:14:03;;;;;;;1.27;0.40;;;15.90;88.60;;;;;;5066511;28;20063;-62
2022/07/10 05:16:29;;;;;;;2.80;0.60;;;15.90;88.60;;;;;;5070719;28;20421;-62
2022/07/10 05:18:54;;;;;;;3.17;1.38;;;15.90;88.60;;;;;;5069699;28;20470;-61
2022/07/10 05:21:20;;;;;;;4.18;0.90;;;16.00;88.70;;;;;;5072316;28;20028;-62
2022/07/10 05:23:46;;;;;;;2.55;0.65;;;16.00;88.80;;;;;;5066194;28;20028;-62
2022/07/10 05:26:11;;;;;;;4.10;0.93;;;16.00;89.00;;;;;;5079149;28;20040;-62
2022/07/10 05:28:37;;;;;;;4.63;1.05;;;16.00;89.10;;;;;;5074723;28;20488;-61
2022/07/10 05:31:02;;;;;;;4.82;1.40;;;16.10;89.40;;;;;;5074777;28;20100;-62
2022/07/10 05:33:28;;;;;;;5.10;0.90;;;16.10;89.60;;;;;;5074664;28;20114;-61
2022/07/10 05:35:54;;;;;;;5.68;0.98;;;16.10;89.80;;;;;;5074658;28;20021;-61
2022/07/10 05:38:20;;;;;;;3.97;0.85;;;16.10;90.00;;;;;;5073822;28;20477;-61
2022/07/10 05:40:45;;;;;;;3.17;0.90;;;16.10;90.00;;;;;;5063884;28;20021;-61
2022/07/10 05:43:11;;;;;;;4.07;0.88;;;16.20;90.10;;;;;;5065300;28;20027;-61
2022/07/10 05:45:37;;;;;;;4.72;1.35;;;16.20;90.10;;;;;;5059961;28;20017;-61
2022/07/10 05:48:03;;;;;;;3.63;0.85;;;16.30;90.10;;;;;;5068696;28;20468;-61
2022/07/10 05:50:28;;;;;;;2.75;0.63;;;16.30;90.10;;;;;;5069229;28;20033;-61
2022/07/10 05:52:54;;;;;;;3.28;1.55;;;16.40;90.00;;;;;;5064474;28;20034;-61
2022/07/10 05:55:19;;;;;;;3.65;0.60;;;16.40;90.00;;;;;;5067254;28;20021;-61
2022/07/10 05:57:45;;;;;;;2.35;0.60;;;16.50;90.00;;;;;;5064735;28;20037;-61
2022/07/10 06:00:11;;;;;;;3.47;0.70;;;16.50;89.90;;;;;;5065176;28;20025;-61
2022/07/10 06:02:36;;;;;;;3.60;0.95;;;16.60;90.00;;;;;;5061576;28;20021;-61
2022/07/10 06:05:02;;;;;;;6.03;0.95;;;16.60;89.90;;;;;;5063197;28;20017;-62
2022/07/10 06:07:29;;;;;;;4.80;0.70;;;16.70;89.90;;;;;;5063284;28;20037;-62
2022/07/10 06:09:55;;;;;;;7.82;1.00;;;16.80;89.90;;;;;;5061247;28;20495;-61
2022/07/10 06:12:21;;;;;;;4.50;1.00;;;16.80;89.80;;;;;;5060588;28;20480;-61
2022/07/10 06:14:46;;;;;;;2.72;1.00;;;16.90;89.80;;;;;;5068852;28;20025;-61
2022/07/10 06:17:12;;;;;;;2.85;0.77;;;16.90;89.60;;;;;;5064198;28;20027;-61
2022/07/10 06:19:37;;;;;;;2.60;0.60;;;17.00;89.50;;;;;;5070390;28;20047;-62
2022/07/10 06:24:47;;;;;;;3.17;0.65;;;17.00;89.00;;;;;;5069824;28;20154;-62
2022/07/10 06:27:12;;;;;;;4.05;0.73;;;17.10;88.90;;;;;;5063815;28;20096;-61
2022/07/10 06:29:38;;;;;;;2.63;0.63;;;17.10;88.60;;;;;;5067601;28;20476;-61
2022/07/10 06:32:04;;;;;;;2.90;1.05;;;17.10;88.60;;;;;;5074030;28;20036;-61
2022/07/10 06:34:30;;;;;;;3.05;0.60;;;17.10;88.50;;;;;;5069633;28;20127;-62
2022/07/10 06:36:55;;;;;;;3.13;0.65;;;17.20;88.50;;;;;;5064798;28;20154;-62
2022/07/10 06:39:21;;;;;;;3.35;0.70;;;17.30;88.20;;;;;;5077722;28;20016;-61
2022/07/10 06:41:47;;;;;;;2.65;0.65;;;17.30;88.00;;;;;;5069073;28;20032;-62
2022/07/10 06:44:12;;;;;;;3.25;0.70;;;17.30;87.90;;;;;;5061261;28;20096;-61
2022/07/10 06:46:38;;;;;;;5.95;0.90;;;17.40;87.90;;;;;;5071916;28;20457;-61
2022/07/10 06:49:04;;;;;;;1.23;0.40;;;17.40;87.80;;;;;;5073584;28;20016;-61
2022/07/10 06:51:29;;;;;;;4.07;0.80;;;17.40;87.70;;;;;;5072141;28;20036;-61
2022/07/10 06:53:56;;;;;;;5.43;0.70;;;17.40;87.70;;;;;;5073327;28;20553;-62
2022/07/10 06:56:21;;;;;;;3.15;0.50;;;17.40;87.70;;;;;;5070971;28;20082;-62
2022/07/10 06:58:47;;;;;;;3.00;0.40;;;17.40;87.70;;;;;;5073392;28;20048;-62
2022/07/10 07:01:12;;;;;;;2.17;0.40;;;17.50;87.70;;;;;;5071040;28;20040;-62
2022/07/10 07:03:38;;;;;;;4.40;0.70;;;17.50;87.60;;;;;;5073343;28;20016;-61
2022/07/10 07:06:04;;;;;;;5.10;0.60;;;17.50;87.40;;;;;;5071022;28;20141;-61
2022/07/10 07:08:30;;;;;;;3.75;0.45;;;17.50;87.30;;;;;;5071139;28;20499;-62
2022/07/10 07:10:55;;;;;;;1.90;0.57;;;17.60;87.30;;;;;;5071290;28;20046;-62
2022/07/10 07:13:21;;;;;;;4.55;0.77;;;17.50;87.10;;;;;;5072688;28;20536;-62
2022/07/10 07:15:56;;;;;;;5.30;0.65;;;17.60;87.10;;;;;;5060477;28;20029;-62
2022/07/10 07:18:31;;;;;;;2.33;0.60;;;17.60;87.10;;;;;;5064215;28;20017;-62
2022/07/10 07:23:41;;;;;;;3.15;0.63;;;17.70;86.90;;;;;;5067190;28;20071;-61
2022/07/10 07:26:06;;;;;;;3.65;0.50;;;17.70;86.70;;;;;;5065686;28;20537;-62
2022/07/10 07:29:13;;;;;;;3.30;0.47;;;17.70;86.40;;;;;;5056630;28;20024;-62
2022/07/10 07:31:38;;;;;;;2.03;0.45;;;17.90;86.10;;;;;;5055306;28;20027;-62
2022/07/10 07:34:03;;;;;;;3.40;0.73;;;17.90;86.30;;;;;;5070106;28;20109;-61
2022/07/10 07:36:55;;;;;;;1.67;0.68;;;17.90;86.10;;;;;;5053133;28;20107;-62
2022/07/10 07:39:39;;;;;;;4.20;0.60;;;18.00;85.80;;;;;;5058789;28;20543;-62
2022/07/10 07:42:21;;;;;;;;;;;;;;;;;;;;;
2022/07/10 07:44:46;;;;;;;2.40;0.70;;;17.90;85.90;;;;;;5059835;28;20491;-62
2022/07/10 07:47:12;;;;;;;2.70;0.52;;;17.90;85.90;;;;;;5060182;28;20099;-62
2022/07/10 07:49:37;;;;;;;2.90;0.65;;;18.00;86.00;;;;;;5063278;28;20037;-62
2022/07/10 07:52:03;;;;;;;3.80;0.50;;;18.00;85.90;;;;;;5057083;28;20098;-62
2022/07/10 07:54:29;;;;;;;3.50;0.70;;;18.10;85.90;;;;;;5053927;28;20025;-62
2022/07/10 07:56:54;;;;;;;3.95;0.82;;;18.10;85.70;;;;;;5055770;28;20037;-61
2022/07/10 07:59:21;;;;;;;2.83;0.63;;;18.10;85.60;;;;;;5059325;28;20067;-62
2022/07/10 08:02:04;;;;;;;;;;;;;;;;;;;;;
2022/07/10 08:04:30;;;;;;;3.33;0.57;;;18.30;85.50;;;;;;5067859;28;20032;-61
2022/07/10 08:06:55;;;;;;;2.53;0.50;;;18.40;85.40;;;;;;5080374;28;20111;-62
2022/07/10 08:09:31;;;;;;;3.13;0.60;;;18.60;85.10;;;;;;5057859;28;20029;-62
2022/07/10 08:11:57;;;;;;;1.83;0.50;;;18.80;84.80;;;;;;5059483;28;20082;-61
2022/07/10 08:14:22;;;;;;;3.08;0.70;;;18.90;84.50;;;;;;5060466;28;20028;-62
2022/07/10 08:17:06;;;;;;;;;;;;;;;;;;;;;
2022/07/10 08:22:25;;;;;;;4.43;0.68;;;19.20;83.20;;;;;;5072102;28;20025;-62
2022/07/10 08:24:51;;;;;;;3.08;0.77;;;19.30;83.20;;;;;;5059217;28;20499;-62
2022/07/10 08:27:17;;;;;;;3.00;0.60;;;19.30;83.20;;;;;;5051893;28;20029;-62
2022/07/10 08:29:43;;;;;;;3.05;0.57;;;19.30;83.10;;;;;;5057444;28;20021;-62
2022/07/10 08:32:09;;;;;;;2.80;0.80;;;19.30;83.00;;;;;;5068062;28;20031;-62
2022/07/10 08:35:01;;;;;;;3.38;1.08;;;19.30;82.90;;;;;;5057108;28;20018;-62
2022/07/10 08:37:36;;;;;;;4.30;0.77;;;19.30;82.60;;;;;;5068030;28;20059;-62
2022/07/10 08:40:01;;;;;;;3.22;0.98;;;19.30;82.70;;;;;;5057152;28;20059;-62
2022/07/10 08:42:27;;;;;;;1.65;0.68;;;19.20;82.50;;;;;;5053236;28;20064;-62
2022/07/10 08:44:53;;;;;;;2.45;0.60;;;19.30;82.30;;;;;;5051207;28;20021;-62
2022/07/10 08:47:42;;;;;;;2.80;0.60;;;19.50;82.10;;;;;;5055876;28;20021;-62
2022/07/10 08:50:18;;;;;;;;;;;19.60;81.80;;;;;;5051251;28;20041;-62
2022/07/10 08:52:55;;;;;;;2.63;0.60;;;19.70;81.50;;;;;;5075647;28;19905;-62
2022/07/10 08:55:25;;;;;;;3.22;0.80;;;19.80;81.10;;;;;;5057365;28;20060;-62
2022/07/10 08:58:01;;;;;;;2.85;0.50;;;19.90;80.70;;;;;;5072564;28;20102;-62
2022/07/10 09:00:27;;;;;;;2.03;0.50;;;19.90;80.40;;;;;;5071228;28;20397;-62
2022/07/10 09:03:06;;;;;;;4.25;0.93;;;20.00;79.90;;;;;;5069511;28;20492;-62
2022/07/10 09:05:33;;;;;;;4.07;0.70;;;20.00;79.70;;;;;;5066702;28;20040;-62
2022/07/10 09:07:58;;;;;;;3.45;0.60;;;20.00;79.70;;;;;;5062342;28;20029;-63
2022/07/10 09:10:54;;;;;;;;;;;;;;;;;;;;;
2022/07/10 09:13:20;;;;;;;1.73;0.60;;;19.90;79.60;;;;;;5064727;28;20032;-62
2022/07/10 09:15:49;;;;;;;2.70;0.65;;;19.80;80.00;;;;;;5058232;28;20104;-62
2022/07/10 09:18:19;;;;;;;1.88;0.80;;;19.80;80.00;;;;;;5064558;28;20020;-62
2022/07/10 09:21:06;;;;;;;2.28;0.75;;;19.80;80.10;;;;;;5064240;28;20362;-62
2022/07/10 09:26:42;;;;;;;2.30;1.17;;;19.80;80.30;;;;;;4992073;28;20049;-62
2022/07/10 09:29:12;;;;;;;4.00;0.70;;;19.90;80.30;;;;;;5055581;28;20036;-62
2022/07/10 09:31:58;;;;;;;2.88;0.70;;;20.20;79.80;;;;;;5069941;28;20025;-62
2022/07/10 09:34:48;;;;;;;2.28;0.68;;;20.50;79.20;;;;;;5064450;28;20033;-62
2022/07/10 09:37:35;;;;;;;3.17;0.60;;;20.80;78.60;;;;;;5063535;28;20916;-62
2022/07/10 09:40:03;;;;;;;1.33;0.52;;;21.00;77.80;;;;;;5070506;28;20543;-62
2022/07/10 09:42:43;;;;;;;2.15;0.73;;;21.10;77.50;;;;;;5064286;28;20151;-62
2022/07/10 09:45:12;;;;;;;1.63;0.60;;;21.20;77.10;;;;;;5068102;28;20025;-62
2022/07/10 09:47:38;;;;;;;3.47;0.82;;;21.30;76.60;;;;;;5067763;28;20435;-62
2022/07/10 09:50:22;;;;;;;1.77;0.70;;;21.30;76.60;;;;;;5067381;28;20021;-62
2022/07/10 09:52:51;;;;;;;3.17;0.80;;;21.40;76.40;;;;;;5073809;28;20640;-62
2022/07/10 09:55:19;;;;;;;2.08;0.60;;;21.40;75.70;;;;;;5072011;28;20020;-62
2022/07/10 09:57:51;;;;;;;1.40;0.60;;;21.50;75.30;;;;;;5072571;28;20059;-62
2022/07/10 10:00:17;;;;;;;1.20;0.50;;;21.60;75.30;;;;;;5060367;28;20426;-62
2022/07/10 10:02:42;;;;;;;2.67;0.52;;;21.60;74.80;;;;;;5067281;28;20023;-62
2022/07/10 10:05:09;;;;;;;1.52;0.40;;;21.60;74.40;;;;;;5067616;28;20020;-62
2022/07/10 10:07:37;;;;;;;2.17;0.63;;;21.60;74.40;;;;;;5072815;28;20054;-62
2022/07/10 10:10:06;;;;;;;2.25;0.60;;;21.70;74.20;;;;;;5064268;28;20409;-62
2022/07/10 10:12:41;;;;;;;3.15;0.77;;;21.70;74.00;;;;;;5064893;28;20032;-62
2022/07/10 10:15:10;;;;;;;2.13;0.43;;;21.80;74.00;;;;;;5066872;28;20016;-62
2022/07/10 10:17:36;;;;;;;1.08;0.40;;;21.80;73.80;;;;;;5063828;28;20060;-63
2022/07/10 10:22:48;;;;;;;2.25;0.55;;;22.20;73.40;;;;;;5064346;28;20070;-62
2022/07/10 10:25:16;;;;;;;3.63;0.50;;;22.50;72.80;;;;;;5067044;28;20020;-62
2022/07/10 10:27:43;;;;;;;1.65;0.50;;;22.70;72.00;;;;;;5061634;28;20091;-62
2022/07/10 10:30:09;;;;;;;1.40;0.50;;;22.90;71.40;;;;;;5059459;28;20039;-62
2022/07/10 10:32:40;;;;;;;2.22;0.50;;;23.10;70.90;;;;;;5060239;28;20017;-62
2022/07/10 10:35:09;;;;;;;1.63;0.40;;;23.40;70.10;;;;;;5064307;28;20035;-62
2022/07/10 10:38:08;;;;;;;;;;;;;;;;;;;;;
2022/07/10 10:40:34;;;;;;;1.38;0.50;;;23.80;68.40;;;;;;5062657;28;20021;-62
2022/07/10 10:43:23;;;;;;;2.83;0.90;;;23.80;68.40;;;;;;5068671;28;20100;-62
2022/07/10 10:45:49;;;;;;;1.02;0.47;;;23.90;67.70;;;;;;5067373;28;20017;-62
2022/07/10 10:48:21;;;;;;;1.40;0.50;;;24.00;67.90;;;;;;5059466;28;20029;-62
2022/07/10 10:51:15;;;;;;;1.33;0.55;;;24.00;67.30;;;;;;5071976;28;20055;-62
2022/07/10 10:53:41;;;;;;;1.55;0.60;;;24.10;66.50;;;;;;5055160;28;20493;-62
2022/07/10 10:59:02;;;;;;;1.93;0.60;;;24.40;66.10;;;;;;5072866;28;20033;-62
2022/07/10 11:01:29;;;;;;;2.95;0.60;;;24.60;65.70;;;;;;5073207;28;20250;-62
2022/07/10 11:04:04;;;;;;;1.55;0.47;;;24.70;65.60;;;;;;5069034;28;20025;-62
2022/07/10 11:09:41;;;;;;;1.27;0.40;;;24.90;64.90;;;;;;5059242;28;20036;-62
2022/07/10 11:12:12;;;;;;;1.70;0.57;;;24.90;64.80;;;;;;5070752;28;20430;-62
2022/07/10 11:14:47;;;;;;;1.42;0.50;;;24.70;64.40;;;;;;5069573;28;20392;-62
2022/07/10 11:17:13;;;;;;;1.77;0.50;;;24.70;64.70;;;;;;5071034;28;20017;-62
2022/07/10 11:19:50;;;;;;;2.40;0.60;;;24.50;64.60;;;;;;5072948;28;20037;-62
2022/07/10 11:22:46;;;;;;;3.28;0.60;;;24.50;63.90;;;;;;5070457;28;20051;-62
2022/07/10 11:26:12;;;;;;;1.23;0.50;;;24.70;63.70;;;;;;5069717;28;20020;-63
2022/07/10 11:28:53;;;;;;;2.35;0.70;;;25.00;63.00;;;;;;5052806;28;20107;-62
2022/07/10 11:31:20;;;;;;;1.45;0.70;;;25.30;62.60;;;;;;5059105;28;20468;-63
2022/07/10 11:33:48;;;;;;;2.15;0.60;;;25.40;62.20;;;;;;5069053;28;20036;-62
2022/07/10 11:36:58;;;;;;;;;;;;;;;;;;;;;
2022/07/10 11:39:24;;;;;;;1.08;0.50;;;25.40;61.90;;;;;;5058403;28;20063;-62
2022/07/10 11:41:50;;;;;;;1.17;0.50;;;25.20;62.30;;;;;;5057815;28;20021;-62
2022/07/10 11:44:18;;;;;;;2.13;0.60;;;25.10;62.30;;;;;;5060222;28;20382;-62
2022/07/10 11:46:44;;;;;;;1.23;0.45;;;24.90;62.00;;;;;;5056256;28;20077;-62
2022/07/10 11:49:11;;;;;;;1.52;0.57;;;24.70;62.40;;;;;;5055517;28;20021;-62
2022/07/10 11:51:39;;;;;;;1.65;0.50;;;24.50;62.70;;;;;;5066900;28;20052;-63
2022/07/10 11:54:10;;;;;;;2.45;0.60;;;24.30;63.20;;;;;;5066465;28;20104;-62
2022/07/10 11:56:38;;;;;;;1.58;0.52;;;24.20;63.30;;;;;;5065358;28;20137;-62
2022/07/10 11:59:06;;;;;;;2.37;0.53;;;24.10;63.50;;;;;;5066419;28;20043;-62
2022/07/10 12:01:33;;;;;;;1.63;0.60;;;24.10;63.90;;;;;;5065704;28;20016;-62
2022/07/10 12:04:02;;;;;;;0.88;0.40;;;24.20;63.90;;;;;;5065286;28;20131;-62
2022/07/10 12:06:30;;;;;;;0.85;0.40;;;24.30;63.80;;;;;;5066275;28;20021;-62
2022/07/10 12:08:55;;;;;;;1.30;0.45;;;24.40;63.60;;;;;;5065696;28;20107;-62
2022/07/10 12:11:22;;;;;;;2.17;0.55;;;24.50;63.20;;;;;;5066247;28;20549;-62
2022/07/10 12:13:50;;;;;;;1.33;0.50;;;24.80;63.00;;;;;;5065007;28;20031;-63
2022/07/10 12:16:16;;;;;;;1.15;0.60;;;25.10;62.50;;;;;;5068025;28;20024;-62
2022/07/10 12:18:43;;;;;;;2.30;0.68;;;25.40;61.80;;;;;;5067200;28;20109;-62
2022/07/10 12:21:10;;;;;;;2.50;0.55;;;25.40;60.80;;;;;;5067200;28;20027;-63
2022/07/10 12:23:41;;;;;;;2.78;0.50;;;25.50;60.70;;;;;;5064766;28;20024;-63
2022/07/10 12:26:10;;;;;;;1.15;0.40;;;25.40;60.80;;;;;;5067060;28;20016;-63
2022/07/10 12:28:55;;;;;;;1.98;0.60;;;25.40;60.90;;;;;;5065739;28;20029;-62
2022/07/10 12:31:28;;;;;;;1.05;0.40;;;25.30;60.90;;;;;;5066121;28;20035;-62
2022/07/10 12:34:04;;;;;;;1.98;0.50;;;25.20;61.20;;;;;;5055674;28;20033;-63
2022/07/10 12:36:50;;;;;;;2.90;0.88;;;25.20;61.50;;;;;;5067791;28;20025;-62
2022/07/10 12:39:23;;;;;;;1.10;0.40;;;25.40;61.00;;;;;;5068129;28;20108;-63
2022/07/10 12:42:03;;;;;;;1.48;0.50;;;25.70;60.80;;;;;;5068067;28;20024;-62
2022/07/10 12:44:52;;;;;;;2.00;0.55;;;25.90;60.10;;;;;;5072193;28;20029;-62
2022/07/10 12:47:20;;;;;;;2.15;0.50;;;26.00;59.70;;;;;;5053114;28;20029;-63
2022/07/10 12:50:19;;;;;;;0.88;0.55;;;26.10;59.30;;;;;;5068336;28;20434;-62
2022/07/10 12:53:34;;;;;;;2.05;0.35;;;26.30;59.60;;;;;;5059709;28;20024;-62
2022/07/10 12:56:00;;;;;;;1.02;0.40;;;26.40;59.40;;;;;;5063790;28;20036;-62
2022/07/10 12:58:43;;;;;;;1.33;0.50;;;26.60;58.90;;;;;;5068462;28;20119;-62
2022/07/10 13:01:08;;;;;;;0.95;0.40;;;26.70;58.30;;;;;;5065893;28;20089;-63
2022/07/10 13:03:34;;;;;;;1.65;0.52;;;26.70;58.10;;;;;;5070479;28;20025;-63
2022/07/10 13:06:00;;;;;;;0.80;0.40;;;26.70;57.20;;;;;;5069254;28;20017;-63
2022/07/10 13:08:26;;;;;;;1.30;0.45;;;26.60;57.90;;;;;;5069717;28;20394;-62
2022/07/10 13:11:15;;;;;;;1.92;0.45;;;26.70;57.40;;;;;;5068106;28;20063;-63
2022/07/10 13:13:40;;;;;;;0.85;0.40;;;26.70;56.70;;;;;;5068606;28;20067;-62
2022/07/10 13:16:06;;;;;;;1.10;0.40;;;26.70;56.70;;;;;;5065964;28;20484;-63
2022/07/10 13:18:32;;;;;;;1.30;0.40;;;26.80;56.70;;;;;;5071267;28;20029;-62
2022/07/10 13:20:58;;;;;;;1.33;0.40;;;26.90;56.60;;;;;;5069255;28;20025;-62
2022/07/10 13:23:25;;;;;;;1.92;0.50;;;27.00;55.90;;;;;;5069438;28;20536;-62
2022/07/10 13:25:54;;;;;;;1.63;0.40;;;27.10;55.60;;;;;;5070855;28;20468;-63
2022/07/10 13:28:20;;;;;;;;;;;27.20;55.20;;;;;;5068015;28;20086;-62
2022/07/10 13:30:46;;;;;;;1.35;0.40;;;27.30;55.50;;;;;;5068586;28;19908;-63
2022/07/10 13:33:11;;;;;;;2.05;0.40;;;27.40;55.10;;;;;;5067345;28;20044;-62